Time;durP1;ratioP1;P1;durP2;ratioP2;P2;SDS_P1;SDS_P2;PMS_P1;PMS_P2;Temp;Humidity;BMP_temperature;BMP_pressure;BME280_temperature;BME280_humidity;BME280_pressure;Samples;Min_cycle;Max_cycle;Signal;HPM_P1;HPM_P2
2021/12/23 00:01:01;;;;;;;51.47;21.50;;;0.60;95.70;;;;;;5063540;28;20021;-66
2021/12/23 00:03:27;;;;;;;50.30;20.52;;;0.60;95.70;;;;;;5039540;28;20046;-66
2021/12/23 00:05:55;;;;;;;47.83;21.25;;;0.70;95.80;;;;;;5040916;28;20037;-66
2021/12/23 00:08:21;;;;;;;62.55;25.35;;;0.60;95.80;;;;;;5047955;28;20036;-66
2021/12/23 00:10:47;;;;;;;62.25;23.25;;;0.60;95.80;;;;;;5049394;28;20030;-66
2021/12/23 00:13:14;;;;;;;49.63;21.40;;;0.60;95.80;;;;;;5057709;28;20124;-66
2021/12/23 00:16:01;;;;;;;41.42;17.50;;;0.70;95.90;;;;;;5038082;28;20097;-66
2021/12/23 00:23:42;;;;;;;41.70;17.50;;;0.70;95.90;;;;;;5044414;28;20044;-66
2021/12/23 00:26:08;;;;;;;58.40;22.17;;;0.70;95.90;;;;;;5047066;28;20404;-66
2021/12/23 00:28:34;;;;;;;66.03;26.20;;;0.70;95.90;;;;;;5050327;28;20029;-66
2021/12/23 00:31:01;;;;;;;56.10;23.00;;;0.70;95.90;;;;;;5051996;28;20591;-66
2021/12/23 00:33:28;;;;;;;70.40;25.63;;;0.70;95.90;;;;;;5057730;28;20039;-66
2021/12/23 00:35:55;;;;;;;70.07;26.58;;;0.70;95.80;;;;;;5045206;28;20041;-66
2021/12/23 00:38:33;;;;;;;48.17;17.20;;;0.70;95.90;;;;;;5041611;28;20030;-66
2021/12/23 00:41:01;;;;;;;50.90;20.38;;;0.70;95.90;;;;;;5039906;28;20111;-67
2021/12/23 00:43:27;;;;;;;67.78;25.85;;;0.70;96.00;;;;;;5049772;28;20033;-66
2021/12/23 00:45:53;;;;;;;58.17;23.35;;;0.70;96.00;;;;;;5058750;28;20028;-66
2021/12/23 00:48:19;;;;;;;56.45;21.88;;;0.60;96.00;;;;;;5052717;28;20405;-66
2021/12/23 00:50:47;;;;;;;59.45;23.20;;;0.60;96.00;;;;;;5049577;28;20017;-66
2021/12/23 00:53:17;;;;;;;59.38;22.58;;;0.60;96.00;;;;;;5047080;28;20092;-66
2021/12/23 00:55:47;;;;;;;64.38;24.90;;;0.70;96.00;;;;;;5038214;28;20056;-66
2021/12/23 00:58:12;;;;;;;67.50;25.17;;;0.60;96.00;;;;;;5056311;28;20034;-66
2021/12/23 01:00:38;;;;;;;57.17;22.05;;;0.60;96.10;;;;;;5061373;28;20031;-66
2021/12/23 01:03:04;;;;;;;68.03;25.80;;;0.60;96.10;;;;;;5057181;28;20399;-66
2021/12/23 01:05:30;;;;;;;58.90;24.05;;;0.60;96.20;;;;;;5054405;28;20025;-66
2021/12/23 01:07:56;;;;;;;61.13;24.73;;;0.60;96.20;;;;;;5053504;28;20036;-66
2021/12/23 01:10:24;;;;;;;60.47;24.40;;;0.60;96.20;;;;;;5033574;28;20120;-67
2021/12/23 01:12:56;;;;;;;57.80;22.10;;;0.60;96.20;;;;;;5058073;28;20123;-66
2021/12/23 01:17:57;;;;;;;58.22;23.38;;;0.60;96.20;;;;;;5053768;28;20063;-66
2021/12/23 01:20:30;;;;;;;77.55;29.40;;;0.60;96.20;;;;;;5056031;28;20074;-66
2021/12/23 01:23:08;;;;;;;70.75;27.23;;;0.60;96.20;;;;;;5055394;28;20045;-66
2021/12/23 01:25:36;;;;;;;68.32;22.80;;;0.60;96.30;;;;;;5042861;28;20022;-66
2021/12/23 01:28:03;;;;;;;61.03;24.80;;;0.60;96.40;;;;;;5052973;28;20028;-66
2021/12/23 01:30:30;;;;;;;67.72;24.85;;;0.60;96.40;;;;;;5053682;28;20090;-66
2021/12/23 01:32:56;;;;;;;68.82;28.27;;;0.60;96.50;;;;;;5054084;28;20250;-67
2021/12/23 01:35:24;;;;;;;63.78;25.77;;;0.60;96.50;;;;;;5055906;28;20491;-66
2021/12/23 01:37:50;;;;;;;72.22;27.63;;;0.60;96.50;;;;;;5044064;28;20484;-66
2021/12/23 01:40:18;;;;;;;63.80;25.67;;;0.60;96.50;;;;;;5066280;28;20021;-66
2021/12/23 01:42:45;;;;;;;66.47;25.80;;;0.60;96.60;;;;;;5054965;28;20021;-66
2021/12/23 01:45:18;;;;;;;70.93;26.65;;;0.60;96.60;;;;;;5051105;28;20021;-66
2021/12/23 01:47:45;;;;;;;63.75;24.33;;;0.60;96.60;;;;;;5037956;28;20492;-66
2021/12/23 01:50:14;;;;;;;71.05;25.83;;;0.60;96.60;;;;;;5047986;28;20143;-66
2021/12/23 01:52:40;;;;;;;71.13;26.70;;;0.60;97.10;;;;;;5050686;28;20041;-66
2021/12/23 01:55:08;;;;;;;57.13;22.58;;;0.60;96.70;;;;;;5047069;28;20040;-66
2021/12/23 01:57:36;;;;;;;72.45;27.13;;;0.70;96.80;;;;;;5062633;28;20025;-66
2021/12/23 02:00:07;;;;;;;56.80;23.13;;;0.60;96.80;;;;;;5043803;28;20124;-66
2021/12/23 02:02:32;;;;;;;;;;;0.70;96.90;;;;;;5050784;28;20029;-66
2021/12/23 02:04:58;;;;;;;52.72;20.45;;;0.70;96.90;;;;;;5047448;28;19928;-66
2021/12/23 02:07:24;;;;;;;68.80;25.48;;;0.70;97.00;;;;;;5036843;28;20025;-66
2021/12/23 02:09:50;;;;;;;51.75;20.85;;;0.70;97.10;;;;;;5057961;28;20035;-66
2021/12/23 02:12:16;;;;;;;59.65;22.70;;;0.70;97.10;;;;;;5056243;28;20162;-66
2021/12/23 02:14:42;;;;;;;67.50;25.48;;;0.70;97.10;;;;;;5045127;28;20029;-66
2021/12/23 02:17:08;;;;;;;67.05;26.45;;;0.70;97.10;;;;;;5043133;28;20131;-66
2021/12/23 02:19:34;;;;;;;68.38;26.80;;;0.70;97.10;;;;;;5054300;28;20068;-66
2021/12/23 02:22:00;;;;;;;54.33;22.95;;;0.80;97.10;;;;;;5051940;28;20486;-66
2021/12/23 02:24:26;;;;;;;64.57;23.83;;;0.90;97.20;;;;;;5035582;28;20532;-66
2021/12/23 02:26:52;;;;;;;55.05;23.70;;;1.00;97.20;;;;;;5042870;28;20056;-66
2021/12/23 02:29:18;;;;;;;67.82;26.17;;;1.10;97.10;;;;;;5047759;28;20112;-66
2021/12/23 02:31:49;;;;;;;48.78;20.95;;;1.10;96.90;;;;;;5049893;28;20025;-67
2021/12/23 02:34:16;;;;;;;53.25;21.08;;;1.20;96.80;;;;;;5047255;28;20028;-66
2021/12/23 02:36:47;;;;;;;57.53;23.50;;;1.30;96.60;;;;;;5053918;28;20107;-66
2021/12/23 02:39:13;;;;;;;65.65;26.02;;;1.40;96.50;;;;;;5046932;28;20044;-66
2021/12/23 02:41:42;;;;;;;56.38;25.08;;;1.40;96.30;;;;;;5045309;28;20029;-66
2021/12/23 02:44:08;;;;;;;61.75;25.90;;;1.50;96.30;;;;;;5052913;28;20033;-66
2021/12/23 02:46:35;;;;;;;59.33;25.58;;;1.50;96.20;;;;;;5033661;28;20017;-66
2021/12/23 02:49:01;;;;;;;61.38;25.52;;;1.60;96.10;;;;;;5046719;28;20021;-66
2021/12/23 02:51:27;;;;;;;47.55;20.13;;;1.60;95.90;;;;;;5043406;28;20023;-66
2021/12/23 02:53:53;;;;;;;58.72;24.42;;;1.70;96.20;;;;;;5049043;28;20041;-66
2021/12/23 02:56:19;;;;;;;39.97;16.25;;;1.70;95.70;;;;;;5046322;28;20524;-66
2021/12/23 02:58:45;;;;;;;60.45;25.55;;;1.80;96.10;;;;;;5051916;28;20032;-66
2021/12/23 03:01:12;;;;;;;54.20;22.27;;;1.80;95.60;;;;;;5053697;28;20147;-66
2021/12/23 03:03:38;;;;;;;51.17;22.17;;;1.80;95.60;;;;;;5043742;28;20124;-66
2021/12/23 03:06:04;;;;;;;58.30;24.52;;;1.90;95.60;;;;;;5032223;28;20540;-66
2021/12/23 03:08:41;;;;;;;54.92;23.50;;;1.90;95.50;;;;;;5034082;28;20029;-66
2021/12/23 03:11:09;;;;;;;63.35;25.27;;;1.90;95.50;;;;;;5043555;28;20029;-66
2021/12/23 03:13:35;;;;;;;48.38;19.88;;;2.00;95.40;;;;;;5046390;28;20107;-66
2021/12/23 03:16:02;;;;;;;66.20;24.83;;;2.00;95.40;;;;;;5032269;28;20025;-66
2021/12/23 03:18:29;;;;;;;61.40;26.48;;;2.00;95.40;;;;;;5043875;28;20032;-66
2021/12/23 03:20:55;;;;;;;61.20;24.50;;;2.10;95.40;;;;;;5045110;28;20032;-66
2021/12/23 03:23:22;;;;;;;58.63;25.38;;;2.10;95.40;;;;;;5039218;28;20044;-66
2021/12/23 03:25:47;;;;;;;53.97;22.42;;;2.10;95.40;;;;;;5046664;28;20024;-67
2021/12/23 03:28:14;;;;;;;55.15;23.42;;;2.20;95.40;;;;;;5038604;28;20025;-66
2021/12/23 03:30:40;;;;;;;43.22;19.10;;;2.20;95.40;;;;;;5034630;28;20037;-66
2021/12/23 03:33:06;;;;;;;40.78;19.15;;;2.20;95.40;;;;;;5038161;28;20225;-66
2021/12/23 03:35:32;;;;;;;57.03;22.50;;;2.20;95.40;;;;;;5043582;28;20060;-66
2021/12/23 03:37:58;;;;;;;60.55;22.67;;;2.20;95.40;;;;;;5052666;28;20039;-66
2021/12/23 03:40:25;;;;;;;45.30;20.90;;;2.20;95.50;;;;;;5047660;28;20044;-66
2021/12/23 03:42:51;;;;;;;37.22;17.67;;;2.30;95.50;;;;;;5052647;28;20497;-66
2021/12/23 03:45:17;;;;;;;56.67;23.73;;;2.30;95.60;;;;;;5048634;28;20029;-66
2021/12/23 03:48:08;;;;;;;58.08;24.15;;;2.30;95.70;;;;;;5041617;28;20063;-66
2021/12/23 03:50:35;;;;;;;55.15;24.27;;;2.30;95.70;;;;;;5041578;28;20029;-66
2021/12/23 03:53:00;;;;;;;59.95;24.48;;;2.30;95.70;;;;;;5036904;28;20761;-66
2021/12/23 03:55:27;;;;;;;57.83;25.00;;;2.40;95.70;;;;;;5046221;28;20057;-66
2021/12/23 03:57:53;;;;;;;54.22;23.35;;;2.40;95.70;;;;;;5051814;28;20033;-66
2021/12/23 04:00:21;;;;;;;56.22;23.77;;;2.50;95.80;;;;;;5051015;28;20036;-66
2021/12/23 04:02:47;;;;;;;57.83;24.27;;;2.50;95.70;;;;;;5043942;28;20029;-67
2021/12/23 04:05:15;;;;;;;55.80;23.40;;;2.60;95.80;;;;;;5044470;28;20033;-66
2021/12/23 04:07:41;;;;;;;54.00;22.48;;;2.60;95.80;;;;;;5047293;28;20108;-66
2021/12/23 04:10:09;;;;;;;49.28;21.58;;;2.60;95.80;;;;;;5031955;28;20025;-66
2021/12/23 04:12:35;;;;;;;47.53;22.10;;;2.70;95.90;;;;;;5047793;28;20025;-66
2021/12/23 04:15:02;;;;;;;54.28;23.85;;;2.70;95.90;;;;;;5050857;28;20399;-66
2021/12/23 04:17:27;;;;;;;59.88;26.02;;;2.70;95.90;;;;;;5056432;28;20020;-66
2021/12/23 04:19:59;;;;;;;58.20;25.38;;;2.80;95.90;;;;;;5058295;28;20036;-66
2021/12/23 04:22:25;;;;;;;56.55;24.33;;;2.80;95.90;;;;;;5046549;28;20159;-66
2021/12/23 04:24:51;;;;;;;53.75;22.63;;;2.80;95.90;;;;;;5053485;28;20123;-66
2021/12/23 04:27:17;;;;;;;55.15;23.20;;;2.90;95.90;;;;;;5050268;28;20059;-66
2021/12/23 04:29:42;;;;;;;60.33;24.42;;;2.90;95.90;;;;;;5055838;28;20032;-66
2021/12/23 04:32:08;;;;;;;57.55;25.33;;;2.90;95.90;;;;;;5055086;28;20091;-66
2021/12/23 04:34:34;;;;;;;57.53;24.42;;;2.90;95.80;;;;;;5049029;28;20096;-66
2021/12/23 04:36:59;;;;;;;59.67;26.25;;;3.00;95.90;;;;;;5038379;28;20422;-67
2021/12/23 04:39:25;;;;;;;60.05;25.58;;;3.00;96.10;;;;;;5056186;28;20174;-66
2021/12/23 04:41:51;;;;;;;56.63;26.48;;;3.00;95.80;;;;;;5052186;28;20043;-66
2021/12/23 04:44:17;;;;;;;56.55;24.90;;;3.00;95.80;;;;;;5045880;28;20405;-66
2021/12/23 04:46:42;;;;;;;59.25;25.83;;;3.10;95.80;;;;;;5041746;28;20037;-67
2021/12/23 04:49:08;;;;;;;59.90;25.35;;;3.10;95.70;;;;;;5061808;28;20028;-67
2021/12/23 04:51:34;;;;;;;63.10;26.90;;;3.10;95.70;;;;;;5053956;28;20094;-66
2021/12/23 04:53:59;;;;;;;56.65;24.10;;;3.10;95.70;;;;;;5053272;28;20495;-66
2021/12/23 04:56:25;;;;;;;56.85;25.65;;;3.10;95.70;;;;;;5055925;28;20024;-66
2021/12/23 04:58:51;;;;;;;53.42;24.50;;;3.10;95.80;;;;;;5060331;28;20029;-66
2021/12/23 05:01:20;;;;;;;51.03;23.10;;;3.10;95.80;;;;;;5057611;28;20024;-67
2021/12/23 05:03:47;;;;;;;59.40;25.50;;;3.20;95.80;;;;;;5056412;28;20079;-67
2021/12/23 05:06:17;;;;;;;58.40;24.73;;;3.10;95.70;;;;;;5044564;28;20036;-67
2021/12/23 05:08:43;;;;;;;54.58;25.02;;;3.20;95.70;;;;;;5052336;28;20025;-66
2021/12/23 05:11:09;;;;;;;56.90;24.05;;;3.20;95.70;;;;;;5049872;28;20025;-66
2021/12/23 05:13:35;;;;;;;54.97;24.77;;;3.20;95.70;;;;;;5048734;28;20488;-66
2021/12/23 05:16:01;;;;;;;58.20;24.60;;;3.20;95.60;;;;;;5044664;28;20025;-66
2021/12/23 05:18:27;;;;;;;58.15;25.90;;;3.20;95.60;;;;;;5046326;28;20603;-66
2021/12/23 05:20:53;;;;;;;58.05;23.92;;;3.20;95.60;;;;;;5039825;28;20075;-66
2021/12/23 05:23:18;;;;;;;61.28;26.08;;;3.20;95.60;;;;;;5039428;28;20045;-66
2021/12/23 05:25:44;;;;;;;59.80;26.70;;;3.20;95.60;;;;;;5048135;28;20130;-66
2021/12/23 05:28:11;;;;;;;61.35;26.27;;;3.20;95.60;;;;;;5034211;28;20430;-66
2021/12/23 05:30:36;;;;;;;52.67;23.05;;;3.20;95.70;;;;;;5046085;28;20032;-66
2021/12/23 05:33:03;;;;;;;51.25;22.65;;;3.20;95.60;;;;;;5043351;28;20047;-66
2021/12/23 05:35:29;;;;;;;56.90;24.98;;;3.10;95.60;;;;;;5042850;28;20071;-66
2021/12/23 05:37:54;;;;;;;44.25;19.63;;;3.10;95.70;;;;;;5036501;28;20020;-66
2021/12/23 05:40:24;;;;;;;55.78;23.30;;;3.10;95.80;;;;;;5045112;28;20024;-66
2021/12/23 05:42:50;;;;;;;62.63;25.13;;;3.10;95.90;;;;;;5048678;28;20032;-66
2021/12/23 05:48:38;;;;;;;48.40;21.02;;;3.10;96.20;;;;;;5041389;28;20055;-66
2021/12/23 05:51:04;;;;;;;54.50;22.23;;;3.10;96.50;;;;;;5046865;28;20765;-66
2021/12/23 05:53:29;;;;;;;64.95;27.08;;;3.10;96.70;;;;;;5056237;28;20052;-66
2021/12/23 05:55:55;;;;;;;50.97;20.75;;;3.10;96.90;;;;;;5045145;28;20723;-66
2021/12/23 05:58:25;;;;;;;57.28;22.73;;;3.00;97.10;;;;;;5038295;28;20096;-66
2021/12/23 06:00:53;;;;;;;65.93;25.30;;;3.10;97.40;;;;;;5041645;28;20036;-66
2021/12/23 06:03:19;;;;;;;57.58;21.75;;;3.10;97.60;;;;;;5044943;28;20052;-66
2021/12/23 06:05:44;;;;;;;40.35;18.27;;;3.10;97.70;;;;;;5045244;28;20033;-66
2021/12/23 06:08:10;;;;;;;50.63;20.73;;;3.10;97.70;;;;;;5052799;28;20111;-66
2021/12/23 06:10:36;;;;;;;66.75;27.30;;;3.10;97.70;;;;;;5060119;28;20083;-66
2021/12/23 06:13:02;;;;;;;74.53;28.83;;;3.10;97.80;;;;;;5040841;28;20035;-65
2021/12/23 06:15:27;;;;;;;71.60;28.70;;;3.10;97.80;;;;;;5051627;28;20033;-65
2021/12/23 06:17:53;;;;;;;66.57;25.45;;;3.10;97.90;;;;;;5042692;28;20033;-66
2021/12/23 06:20:19;;;;;;;72.60;27.52;;;3.10;97.90;;;;;;5043286;28;20036;-66
2021/12/23 06:22:45;;;;;;;59.92;23.33;;;3.20;97.90;;;;;;5033269;28;20021;-66
2021/12/23 06:25:12;;;;;;;62.28;24.52;;;3.20;97.90;;;;;;5044400;28;20072;-66
2021/12/23 06:27:39;;;;;;;74.50;25.98;;;3.20;97.90;;;;;;5045787;28;20569;-66
2021/12/23 06:30:18;;;;;;;71.68;27.05;;;3.20;97.90;;;;;;5052669;28;20494;-66
2021/12/23 06:32:48;;;;;;;68.88;26.23;;;3.30;98.00;;;;;;5051114;28;20017;-67
2021/12/23 06:35:14;;;;;;;69.97;25.95;;;3.30;97.90;;;;;;5048133;28;20081;-66
2021/12/23 06:37:40;;;;;;;66.35;27.20;;;3.30;98.00;;;;;;5046990;28;20540;-66
2021/12/23 06:40:08;;;;;;;67.45;27.30;;;3.30;97.90;;;;;;5054874;28;20036;-66
2021/12/23 06:42:34;;;;;;;67.82;26.92;;;3.40;97.90;;;;;;5049098;28;20381;-66
2021/12/23 06:44:59;;;;;;;68.30;27.70;;;3.40;97.90;;;;;;5046460;28;20503;-66
2021/12/23 06:47:25;;;;;;;61.03;24.17;;;3.40;97.90;;;;;;5046729;28;20526;-66
2021/12/23 06:49:51;;;;;;;55.22;25.27;;;3.50;97.90;;;;;;5050517;28;20024;-66
2021/12/23 06:52:16;;;;;;;62.78;25.90;;;3.50;97.80;;;;;;5044896;28;20075;-66
2021/12/23 06:54:47;;;;;;;58.35;23.92;;;3.50;97.80;;;;;;5055009;28;20045;-66
2021/12/23 06:57:13;;;;;;;65.55;28.02;;;3.50;97.80;;;;;;5043945;28;20503;-66
2021/12/23 06:59:39;;;;;;;73.80;29.13;;;3.40;97.70;;;;;;5045251;28;20021;-66
2021/12/23 07:02:05;;;;;;;66.00;26.40;;;3.30;97.70;;;;;;5045004;28;20029;-66
2021/12/23 07:04:33;;;;;;;77.15;29.08;;;3.30;97.70;;;;;;5046396;28;20046;-66
2021/12/23 07:07:10;;;;;;;73.50;27.50;;;3.20;97.70;;;;;;5061661;28;20083;-66
2021/12/23 07:09:37;;;;;;;75.40;26.33;;;3.10;97.90;;;;;;5036670;28;20493;-65
2021/12/23 07:12:05;;;;;;;80.40;30.13;;;3.00;98.00;;;;;;5050230;28;20098;-66
2021/12/23 07:14:30;;;;;;;77.57;28.08;;;2.90;98.10;;;;;;5045998;28;20503;-66
2021/12/23 07:16:56;;;;;;;60.33;22.58;;;2.80;98.10;;;;;;5045561;28;20224;-66
2021/12/23 07:19:22;;;;;;;65.95;24.85;;;2.80;98.30;;;;;;5048559;28;20029;-65
2021/12/23 07:21:48;;;;;;;73.20;28.50;;;2.80;98.40;;;;;;5045432;28;20472;-66
2021/12/23 07:24:13;;;;;;;85.30;31.15;;;2.70;98.60;;;;;;5047020;28;20037;-66
2021/12/23 07:26:39;;;;;;;77.03;29.13;;;2.60;98.60;;;;;;5050280;28;20029;-65
2021/12/23 07:29:05;;;;;;;79.05;29.20;;;2.60;98.70;;;;;;5044790;28;20060;-66
2021/12/23 07:31:31;;;;;;;84.18;30.77;;;2.60;98.80;;;;;;5032270;28;20028;-65
2021/12/23 07:33:57;;;;;;;74.07;29.50;;;2.50;98.80;;;;;;5053059;28;20064;-65
2021/12/23 07:36:25;;;;;;;86.68;32.13;;;2.50;98.90;;;;;;5046219;28;20121;-65
2021/12/23 07:38:51;;;;;;;82.88;30.38;;;2.50;98.90;;;;;;5047328;28;20039;-65
2021/12/23 07:41:17;;;;;;;84.35;31.88;;;2.40;99.00;;;;;;5047265;28;20037;-66
2021/12/23 07:43:55;;;;;;;81.15;30.92;;;2.50;99.10;;;;;;5047288;28;20087;-65
2021/12/23 07:46:21;;;;;;;73.68;28.25;;;2.50;99.20;;;;;;5031794;28;20044;-66
2021/12/23 07:48:47;;;;;;;75.97;29.67;;;2.50;99.20;;;;;;5050121;28;20484;-65
2021/12/23 07:51:13;;;;;;;81.82;30.55;;;2.50;99.20;;;;;;5053497;28;20078;-65
2021/12/23 07:53:39;;;;;;;74.72;29.40;;;2.60;99.30;;;;;;5055667;28;20040;-65
2021/12/23 07:56:05;;;;;;;60.92;23.80;;;2.60;99.20;;;;;;5048940;28;20033;-65
2021/12/23 07:58:31;;;;;;;75.38;28.88;;;2.60;99.20;;;;;;5041670;28;20055;-65
2021/12/23 08:00:57;;;;;;;74.30;29.88;;;2.70;99.10;;;;;;5060878;28;20063;-65
2021/12/23 08:03:22;;;;;;;75.63;30.88;;;2.70;99.00;;;;;;5040174;28;20065;-65
2021/12/23 08:05:48;;;;;;;73.50;30.75;;;2.70;99.00;;;;;;5038492;28;20035;-65
2021/12/23 08:08:15;;;;;;;79.40;30.40;;;2.70;98.90;;;;;;5042580;28;20033;-65
2021/12/23 08:10:40;;;;;;;72.90;29.83;;;2.70;98.90;;;;;;5049005;28;20427;-65
2021/12/23 08:13:07;;;;;;;81.32;30.48;;;2.70;98.80;;;;;;5058116;28;20119;-66
2021/12/23 08:15:34;;;;;;;71.45;31.27;;;2.70;98.80;;;;;;5037988;28;20657;-66
2021/12/23 08:17:59;;;;;;;76.55;30.33;;;2.80;98.80;;;;;;5045261;28;20089;-66
2021/12/23 08:20:25;;;;;;;74.18;29.95;;;2.90;98.80;;;;;;5045210;28;20553;-66
2021/12/23 08:22:51;;;;;;;76.90;30.15;;;2.90;98.70;;;;;;5040293;28;20033;-66
2021/12/23 08:25:17;;;;;;;73.13;30.58;;;3.00;98.60;;;;;;5034057;28;20030;-66
2021/12/23 08:27:43;;;;;;;71.90;29.63;;;3.10;98.60;;;;;;5050539;28;20036;-66
2021/12/23 08:30:13;;;;;;;78.68;30.15;;;3.20;98.50;;;;;;5044939;28;20395;-66
2021/12/23 08:32:39;;;;;;;63.92;26.88;;;3.20;98.40;;;;;;5042900;28;20025;-66
2021/12/23 08:35:06;;;;;;;66.72;28.02;;;3.30;98.30;;;;;;5045190;28;20029;-66
2021/12/23 08:37:31;;;;;;;57.65;25.65;;;3.40;98.10;;;;;;5034800;28;20112;-66
2021/12/23 08:39:57;;;;;;;63.58;27.33;;;3.50;98.00;;;;;;5052702;28;20163;-66
2021/12/23 08:42:23;;;;;;;60.63;26.55;;;3.60;97.80;;;;;;5038331;28;20029;-66
2021/12/23 08:44:49;;;;;;;60.35;27.00;;;3.70;97.80;;;;;;5043077;28;20037;-66
2021/12/23 08:47:15;;;;;;;62.60;27.52;;;3.80;97.60;;;;;;5047841;28;20032;-66
2021/12/23 08:49:42;;;;;;;56.63;25.95;;;3.90;97.50;;;;;;5054865;28;20043;-66
2021/12/23 08:52:09;;;;;;;59.83;26.23;;;4.10;97.30;;;;;;5057051;28;20534;-66
2021/12/23 08:54:34;;;;;;;52.08;25.52;;;4.20;97.00;;;;;;5051454;28;20037;-65
2021/12/23 08:57:01;;;;;;;56.08;26.10;;;4.40;96.80;;;;;;5040494;28;20037;-66
2021/12/23 08:59:26;;;;;;;53.40;25.45;;;4.50;96.50;;;;;;5047229;28;20026;-66
2021/12/23 09:01:53;;;;;;;55.42;26.23;;;4.70;96.30;;;;;;5050193;28;20427;-66
2021/12/23 09:04:20;;;;;;;55.08;25.73;;;4.90;96.50;;;;;;5033043;28;20515;-66
2021/12/23 09:06:46;;;;;;;63.80;31.00;;;5.20;95.70;;;;;;5049838;28;20033;-66
2021/12/23 09:09:12;;;;;;;52.35;26.40;;;5.50;95.20;;;;;;5038143;28;20037;-66
2021/12/23 09:11:38;;;;;;;41.30;20.13;;;5.80;94.60;;;;;;5036989;28;20071;-66
2021/12/23 09:14:04;;;;;;;41.88;22.13;;;5.90;94.20;;;;;;5038123;28;20033;-66
2021/12/23 09:16:30;;;;;;;41.05;20.08;;;5.90;94.20;;;;;;5048293;28;20409;-66
2021/12/23 09:18:56;;;;;;;41.83;19.70;;;5.80;94.30;;;;;;5047262;28;20091;-66
2021/12/23 09:21:21;;;;;;;43.10;20.35;;;5.70;94.40;;;;;;5036876;28;20095;-66
2021/12/23 09:23:47;;;;;;;49.13;24.20;;;5.70;94.60;;;;;;5036620;28;20041;-66
2021/12/23 09:26:13;;;;;;;45.50;23.67;;;5.70;94.70;;;;;;5036735;28;20033;-66
2021/12/23 09:34:10;;;;;;;45.20;23.10;;;5.60;95.10;;;;;;5052263;28;20054;-66
2021/12/23 09:36:37;;;;;;;38.67;20.00;;;5.60;95.20;;;;;;5045578;28;20662;-66
2021/12/23 09:39:06;;;;;;;46.70;22.95;;;5.60;95.20;;;;;;5046100;28;20079;-67
2021/12/23 09:41:33;;;;;;;45.47;23.80;;;5.60;95.20;;;;;;5044671;28;20036;-66
2021/12/23 09:44:00;;;;;;;45.03;21.33;;;5.60;95.20;;;;;;5044954;28;20044;-67
2021/12/23 09:46:26;;;;;;;43.13;22.52;;;5.60;95.30;;;;;;5043677;28;20009;-66
2021/12/23 09:48:52;;;;;;;46.58;22.98;;;5.60;95.30;;;;;;5049876;28;20414;-66
2021/12/23 09:51:20;;;;;;;50.65;23.20;;;5.50;95.20;;;;;;5042199;28;20025;-66
2021/12/23 09:53:57;;;;;;;39.25;19.83;;;5.50;95.60;;;;;;5036623;28;20099;-66
2021/12/23 09:56:25;;;;;;;46.83;22.33;;;5.50;95.20;;;;;;5039602;28;20064;-66
2021/12/23 09:58:51;;;;;;;49.95;23.75;;;5.50;95.30;;;;;;5041550;28;20033;-66
2021/12/23 10:01:18;;;;;;;49.95;22.73;;;5.50;95.40;;;;;;5043672;28;20033;-66
2021/12/23 10:03:44;;;;;;;49.80;25.40;;;5.60;95.60;;;;;;5057844;28;20539;-65
2021/12/23 10:06:10;;;;;;;33.60;18.92;;;5.70;95.60;;;;;;5046233;28;20476;-65
2021/12/23 10:08:39;;;;;;;43.30;21.77;;;5.80;95.40;;;;;;5047010;28;20040;-66
2021/12/23 10:38:29;;;;;;;34.20;18.77;;;10.70;83.50;;;;;;5036105;28;20064;-66
2021/12/23 10:40:58;;;;;;;31.38;19.52;;;11.50;80.40;;;;;;5036514;28;20037;-66
2021/12/23 10:43:37;;;;;;;31.65;20.85;;;12.20;74.90;;;;;;5031786;28;20072;-66
2021/12/23 10:46:09;;;;;;;34.42;20.77;;;13.10;72.10;;;;;;5031255;28;20033;-66
2021/12/23 10:49:14;;;;;;;29.05;17.48;;;12.30;71.90;;;;;;5033115;28;20033;-66
2021/12/23 10:52:06;;;;;;;31.48;18.73;;;11.70;74.30;;;;;;5034014;28;20042;-66
2021/12/23 11:00:28;;;;;;;28.40;16.40;;;10.60;80.20;;;;;;5035886;28;20099;-66
2021/12/23 11:02:57;;;;;;;29.67;17.65;;;10.40;81.70;;;;;;5038542;28;20037;-66
2021/12/23 11:05:28;;;;;;;31.95;17.70;;;10.40;82.50;;;;;;5043496;28;20043;-66
2021/12/23 11:08:01;;;;;;;31.63;18.42;;;10.50;82.90;;;;;;5035928;28;20094;-66
2021/12/23 11:38:09;;;;;;;35.60;21.60;;;12.90;75.80;;;;;;5044515;28;20041;-66
2021/12/23 11:45:33;;;;;;;30.80;19.38;;;15.40;65.30;;;;;;5043391;28;20060;-66
2021/12/23 11:47:58;;;;;;;27.75;19.50;;;15.90;63.10;;;;;;5048980;28;20547;-67
2021/12/23 11:50:33;;;;;;;28.55;19.77;;;16.40;60.90;;;;;;5049317;28;20033;-67
2021/12/23 11:53:00;;;;;;;30.08;19.23;;;17.50;58.80;;;;;;5049149;28;20049;-66
2021/12/23 11:55:26;;;;;;;28.13;18.38;;;17.50;57.10;;;;;;5040247;28;20052;-66
2021/12/23 11:57:54;;;;;;;29.42;20.50;;;16.40;59.00;;;;;;5058321;28;20108;-66
2021/12/23 12:00:37;;;;;;;28.27;19.98;;;15.60;61.30;;;;;;5047208;28;20048;-66
2021/12/23 12:03:06;;;;;;;31.80;19.52;;;15.20;63.20;;;;;;5049869;28;20527;-65
2021/12/23 12:05:35;;;;;;;31.08;19.83;;;14.70;64.40;;;;;;5047381;28;20033;-66
2021/12/23 12:08:11;;;;;;;32.45;19.98;;;14.30;66.50;;;;;;5056365;28;20040;-66
2021/12/23 12:10:41;;;;;;;33.20;20.75;;;14.20;67.30;;;;;;5042583;28;20515;-66
2021/12/23 12:13:17;;;;;;;30.25;20.58;;;14.40;67.30;;;;;;5043485;28;20510;-66
2021/12/23 12:15:50;;;;;;;;;;;15.20;66.20;;;;;;5049298;28;20027;-66
2021/12/23 12:18:22;;;;;;;27.27;18.88;;;15.00;65.00;;;;;;5054774;28;20007;-67
2021/12/23 12:20:54;;;;;;;30.02;19.13;;;16.10;63.40;;;;;;5039971;28;20045;-67
2021/12/23 12:23:33;;;;;;;28.27;18.77;;;16.50;61.90;;;;;;5040397;28;20095;-66
2021/12/23 12:26:05;;;;;;;27.02;19.52;;;16.80;60.40;;;;;;5045975;28;20047;-66
2021/12/23 12:28:37;;;;;;;30.40;19.35;;;16.50;60.50;;;;;;5060606;28;20075;-67
2021/12/23 12:31:07;;;;;;;27.88;17.58;;;15.60;63.00;;;;;;5053436;28;20111;-66
2021/12/23 12:33:45;;;;;;;26.88;17.92;;;14.90;65.80;;;;;;5047464;28;20384;-66
2021/12/23 12:36:15;;;;;;;27.38;18.77;;;14.30;68.60;;;;;;5055519;28;20041;-66
2021/12/23 12:38:46;;;;;;;30.80;18.00;;;13.70;71.20;;;;;;5051935;28;20025;-66
2021/12/23 12:41:25;;;;;;;33.22;18.17;;;13.20;74.00;;;;;;5046792;28;20480;-66
2021/12/23 12:44:08;;;;;;;30.95;18.63;;;12.90;75.50;;;;;;5037428;28;20065;-66
2021/12/23 12:46:47;;;;;;;40.67;18.70;;;12.70;76.70;;;;;;5034722;28;20040;-68
2021/12/23 12:49:25;;;;;;;26.13;16.80;;;12.70;77.60;;;;;;5049938;28;20076;-66
2021/12/23 12:51:54;;;;;;;30.80;16.88;;;12.60;79.00;;;;;;5051379;28;20132;-66
2021/12/23 12:54:31;;;;;;;26.98;15.82;;;12.70;78.90;;;;;;5037438;28;20068;-66
2021/12/23 12:57:06;;;;;;;23.58;15.25;;;12.60;79.60;;;;;;5042363;28;20036;-66
2021/12/23 12:59:37;;;;;;;26.30;14.68;;;12.50;80.50;;;;;;5049212;28;20041;-66
2021/12/23 13:02:22;;;;;;;27.30;14.88;;;12.40;81.60;;;;;;5048480;28;20029;-66
2021/12/23 13:05:09;;;;;;;26.63;16.02;;;12.30;82.40;;;;;;5047544;28;20114;-66
2021/12/23 13:07:37;;;;;;;27.75;15.45;;;12.30;82.60;;;;;;5053063;28;20031;-66
2021/12/23 13:10:15;;;;;;;26.70;14.30;;;12.40;83.20;;;;;;5047721;28;20032;-66
2021/12/23 13:12:51;;;;;;;30.95;15.18;;;12.20;83.90;;;;;;5047700;28;20048;-66
2021/12/23 13:15:24;;;;;;;22.13;13.50;;;12.10;84.60;;;;;;5047160;28;20038;-66
2021/12/23 13:17:56;;;;;;;29.42;14.63;;;12.00;85.70;;;;;;5040408;28;20388;-66
2021/12/23 13:20:32;;;;;;;25.00;14.18;;;11.80;86.60;;;;;;5039699;28;20508;-67
2021/12/23 13:23:15;;;;;;;26.85;13.27;;;11.80;87.50;;;;;;5032899;28;20500;-67
2021/12/23 13:25:54;;;;;;;25.80;14.32;;;11.70;87.90;;;;;;5034950;28;20119;-66
2021/12/23 13:28:31;;;;;;;23.42;14.77;;;11.60;88.60;;;;;;5032039;28;20037;-66
2021/12/23 13:30:57;;;;;;;26.58;15.10;;;11.60;88.80;;;;;;5035180;28;20025;-67
2021/12/23 13:33:24;;;;;;;25.05;13.38;;;11.60;88.70;;;;;;5047152;28;20115;-67
2021/12/23 13:35:50;;;;;;;25.98;14.52;;;11.50;89.80;;;;;;5037425;28;20032;-67
2021/12/23 13:38:41;;;;;;;25.27;14.65;;;11.40;90.00;;;;;;5044149;28;20037;-67
2021/12/23 13:41:24;;;;;;;21.92;13.68;;;11.40;90.20;;;;;;5041918;28;20037;-67
2021/12/23 13:43:50;;;;;;;22.67;13.25;;;11.30;90.50;;;;;;5035726;28;20029;-67
2021/12/23 13:46:17;;;;;;;29.05;14.55;;;11.30;90.60;;;;;;5045046;28;20029;-67
2021/12/23 13:48:49;;;;;;;23.10;14.60;;;11.30;90.80;;;;;;5035771;28;20030;-67
2021/12/23 13:51:15;;;;;;;27.67;14.90;;;11.30;90.80;;;;;;5042985;28;20735;-67
2021/12/23 13:53:40;;;;;;;26.65;14.80;;;11.40;90.60;;;;;;5037574;28;20588;-67
2021/12/23 13:56:14;;;;;;;25.50;14.60;;;11.40;90.80;;;;;;5034098;28;20112;-67
2021/12/23 13:58:40;;;;;;;26.55;13.95;;;11.40;90.80;;;;;;5044085;28;20033;-67
2021/12/23 14:01:07;;;;;;;23.80;14.32;;;11.40;90.90;;;;;;5033760;28;20057;-67
2021/12/23 14:03:32;;;;;;;25.77;13.00;;;11.30;91.00;;;;;;5043604;28;20029;-67